sensor_id;sensor_type;location;lat;lon;timestamp;pressure;altitude;pressure_sealevel;temperature;humidity
7990;BME280;4040;42.848;23.034;2022-12-19T00:05:27;96702.06;;;-0.33;100.00
7990;BME280;4040;42.848;23.034;2022-12-19T00:11:20;96704.63;;;-0.28;100.00
7990;BME280;4040;42.848;23.034;2022-12-19T00:13:47;96703.56;;;-0.27;100.00
7990;BME280;4040;42.848;23.034;2022-12-19T00:19:36;96716.38;;;-0.34;100.00
7990;BME280;4040;42.848;23.034;2022-12-19T00:25:25;96720.31;;;-0.50;100.00
7990;BME280;4040;42.848;23.034;2022-12-19T00:31:16;96718.09;;;-0.43;100.00
7990;BME280;4040;42.848;23.034;2022-12-19T00:37:05;96721.75;;;-0.39;100.00
7990;BME280;4040;42.848;23.034;2022-12-19T00:42:53;96722.22;;;-0.37;100.00
7990;BME280;4040;42.848;23.034;2022-12-19T00:48:44;96734.97;;;-0.39;100.00
7990;BME280;4040;42.848;23.034;2022-12-19T00:54:32;96726.97;;;-0.34;100.00
7990;BME280;4040;42.848;23.034;2022-12-19T01:00:21;96737.06;;;-0.36;100.00
7990;BME280;4040;42.848;23.034;2022-12-19T01:06:11;96727.13;;;-0.44;100.00
7990;BME280;4040;42.848;23.034;2022-12-19T01:12:00;96732.94;;;-0.47;100.00
7990;BME280;4040;42.848;23.034;2022-12-19T01:18:07;96722.38;;;-0.47;100.00
7990;BME280;4040;42.848;23.034;2022-12-19T01:23:58;96708.28;;;-0.43;100.00
7990;BME280;4040;42.848;23.034;2022-12-19T01:29:46;96719.16;;;-0.44;100.00
7990;BME280;4040;42.848;23.034;2022-12-19T01:35:35;96732.19;;;-0.29;100.00
7990;BME280;4040;42.848;23.034;2022-12-19T01:41:25;96739.84;;;-0.46;100.00
7990;BME280;4040;42.848;23.034;2022-12-19T01:47:14;96732.28;;;-0.34;100.00
7990;BME280;4040;42.848;23.034;2022-12-19T01:53:04;96732.53;;;-0.54;100.00
7990;BME280;4040;42.848;23.034;2022-12-19T01:58:57;96728.88;;;-0.58;100.00
7990;BME280;4040;42.848;23.034;2022-12-19T02:04:49;96718.41;;;-0.68;100.00
7990;BME280;4040;42.848;23.034;2022-12-19T02:10:37;96659.44;;;-1.34;100.00
7990;BME280;4040;42.848;23.034;2022-12-19T02:21:04;96735.25;;;-1.30;100.00
7990;BME280;4040;42.848;23.034;2022-12-19T02:27:11;96713.47;;;-1.45;100.00
7990;BME280;4040;42.848;23.034;2022-12-19T02:33:12;96728.81;;;-1.47;100.00
7990;BME280;4040;42.848;23.034;2022-12-19T02:39:07;96721.09;;;-1.72;100.00
7990;BME280;4040;42.848;23.034;2022-12-19T02:45:01;96719.53;;;-1.73;100.00
7990;BME280;4040;42.848;23.034;2022-12-19T02:50:53;96716.72;;;-1.82;100.00
7990;BME280;4040;42.848;23.034;2022-12-19T02:56:46;96717.16;;;-2.03;100.00
7990;BME280;4040;42.848;23.034;2022-12-19T03:02:40;96730.81;;;-1.96;100.00
7990;BME280;4040;42.848;23.034;2022-12-19T03:08:54;96733.97;;;-1.94;100.00
7990;BME280;4040;42.848;23.034;2022-12-19T03:14:47;96736.09;;;-1.96;100.00
7990;BME280;4040;42.848;23.034;2022-12-19T03:20:43;96742.56;;;-2.12;100.00
7990;BME280;4040;42.848;23.034;2022-12-19T03:26:38;96734.16;;;-2.19;100.00
7990;BME280;4040;42.848;23.034;2022-12-19T03:32:30;96744.75;;;-2.24;100.00
7990;BME280;4040;42.848;23.034;2022-12-19T03:38:19;96718.50;;;-2.44;100.00
7990;BME280;4040;42.848;23.034;2022-12-19T03:44:12;96754.19;;;-2.18;100.00
7990;BME280;4040;42.848;23.034;2022-12-19T03:50:04;96760.09;;;-2.31;100.00
7990;BME280;4040;42.848;23.034;2022-12-19T03:55:58;96761.13;;;-2.27;100.00
7990;BME280;4040;42.848;23.034;2022-12-19T04:01:52;96784.22;;;-2.53;100.00
7990;BME280;4040;42.848;23.034;2022-12-19T04:07:42;96775.63;;;-2.30;100.00
7990;BME280;4040;42.848;23.034;2022-12-19T04:13:33;96762.69;;;-2.26;100.00
7990;BME280;4040;42.848;23.034;2022-12-19T04:16:09;96766.41;;;-2.27;100.00
7990;BME280;4040;42.848;23.034;2022-12-19T04:22:06;96765.44;;;-2.41;100.00
7990;BME280;4040;42.848;23.034;2022-12-19T04:27:57;96775.97;;;-2.41;100.00
7990;BME280;4040;42.848;23.034;2022-12-19T04:33:47;96780.75;;;-2.48;100.00
7990;BME280;4040;42.848;23.034;2022-12-19T04:39:37;96784.50;;;-2.54;100.00
7990;BME280;4040;42.848;23.034;2022-12-19T04:45:26;96780.28;;;-2.55;100.00
7990;BME280;4040;42.848;23.034;2022-12-19T04:51:15;96778.19;;;-2.63;100.00
7990;BME280;4040;42.848;23.034;2022-12-19T04:57:05;96780.84;;;-2.68;100.00
7990;BME280;4040;42.848;23.034;2022-12-19T05:02:53;96794.84;;;-2.72;100.00
7990;BME280;4040;42.848;23.034;2022-12-19T05:08:42;96795.63;;;-2.72;100.00
7990;BME280;4040;42.848;23.034;2022-12-19T05:14:33;96795.13;;;-2.79;100.00
7990;BME280;4040;42.848;23.034;2022-12-19T05:20:21;96792.00;;;-2.91;100.00
7990;BME280;4040;42.848;23.034;2022-12-19T05:26:20;96797.31;;;-2.96;100.00
7990;BME280;4040;42.848;23.034;2022-12-19T05:32:11;96774.66;;;-3.12;100.00
7990;BME280;4040;42.848;23.034;2022-12-19T05:37:59;96807.84;;;-3.01;100.00
7990;BME280;4040;42.848;23.034;2022-12-19T05:43:51;96797.88;;;-3.14;100.00
7990;BME280;4040;42.848;23.034;2022-12-19T05:49:41;96803.13;;;-3.14;100.00
7990;BME280;4040;42.848;23.034;2022-12-19T05:55:30;96758.91;;;-3.42;100.00
7990;BME280;4040;42.848;23.034;2022-12-19T06:01:20;96792.06;;;-3.21;100.00
7990;BME280;4040;42.848;23.034;2022-12-19T06:07:11;96798.16;;;-3.20;100.00
7990;BME280;4040;42.848;23.034;2022-12-19T06:12:59;96807.09;;;-3.11;100.00
7990;BME280;4040;42.848;23.034;2022-12-19T06:19:08;96804.72;;;-3.13;100.00
7990;BME280;4040;42.848;23.034;2022-12-19T06:24:59;96815.78;;;-3.06;100.00
7990;BME280;4040;42.848;23.034;2022-12-19T06:30:47;96825.75;;;-2.98;100.00
7990;BME280;4040;42.848;23.034;2022-12-19T06:36:36;96824.94;;;-2.93;100.00
7990;BME280;4040;42.848;23.034;2022-12-19T06:42:27;96839.44;;;-2.91;100.00
7990;BME280;4040;42.848;23.034;2022-12-19T06:48:15;96845.22;;;-2.74;100.00
7990;BME280;4040;42.848;23.034;2022-12-19T06:54:04;96844.91;;;-2.04;100.00
7990;BME280;4040;42.848;23.034;2022-12-19T06:59:55;96844.16;;;-1.61;100.00
7990;BME280;4040;42.848;23.034;2022-12-19T07:05:45;96841.34;;;0.04;100.00
7990;BME280;4040;42.848;23.034;2022-12-19T07:11:35;96836.22;;;0.31;100.00
7990;BME280;4040;42.848;23.034;2022-12-19T07:17:25;96844.22;;;-0.57;100.00
7990;BME280;4040;42.848;23.034;2022-12-19T07:23:18;96836.00;;;-0.79;100.00
7990;BME280;4040;42.848;23.034;2022-12-19T07:29:08;96867.00;;;-0.56;100.00
7990;BME280;4040;42.848;23.034;2022-12-19T07:34:59;96879.66;;;-0.53;100.00
7990;BME280;4040;42.848;23.034;2022-12-19T07:40:48;96879.94;;;-0.31;100.00
7990;BME280;4040;42.848;23.034;2022-12-19T07:46:37;96892.38;;;-0.08;100.00
7990;BME280;4040;42.848;23.034;2022-12-19T07:52:27;96891.25;;;-0.03;100.00
7990;BME280;4040;42.848;23.034;2022-12-19T07:58:16;96890.00;;;0.32;100.00
7990;BME280;4040;42.848;23.034;2022-12-19T08:04:05;96893.53;;;0.27;100.00
7990;BME280;4040;42.848;23.034;2022-12-19T08:09:55;96896.94;;;0.83;100.00
7990;BME280;4040;42.848;23.034;2022-12-19T08:15:43;96901.97;;;0.98;100.00
7990;BME280;4040;42.848;23.034;2022-12-19T08:25:59;96902.31;;;1.56;100.00
7990;BME280;4040;42.848;23.034;2022-12-19T08:31:49;96902.03;;;1.57;100.00
7990;BME280;4040;42.848;23.034;2022-12-19T08:37:38;96896.41;;;1.45;100.00
7990;BME280;4040;42.848;23.034;2022-12-19T08:43:32;96884.03;;;1.41;100.00
7990;BME280;4040;42.848;23.034;2022-12-19T08:49:26;96876.25;;;1.71;100.00
7990;BME280;4040;42.848;23.034;2022-12-19T08:55:15;96879.44;;;1.73;100.00
7990;BME280;4040;42.848;23.034;2022-12-19T09:01:07;96862.41;;;1.74;100.00
7990;BME280;4040;42.848;23.034;2022-12-19T09:06:59;96857.34;;;2.13;100.00
7990;BME280;4040;42.848;23.034;2022-12-19T09:12:47;96855.56;;;2.22;100.00
7990;BME280;4040;42.848;23.034;2022-12-19T09:18:38;96848.97;;;2.55;100.00
7990;BME280;4040;42.848;23.034;2022-12-19T09:28:48;96835.75;;;2.63;100.00
7990;BME280;4040;42.848;23.034;2022-12-19T09:34:39;96827.59;;;3.12;100.00
7990;BME280;4040;42.848;23.034;2022-12-19T09:40:30;96824.94;;;3.34;100.00
7990;BME280;4040;42.848;23.034;2022-12-19T09:46:28;96809.16;;;3.46;100.00
7990;BME280;4040;42.848;23.034;2022-12-19T09:52:24;96803.31;;;3.36;100.00
7990;BME280;4040;42.848;23.034;2022-12-19T09:58:23;96815.13;;;3.52;100.00
7990;BME280;4040;42.848;23.034;2022-12-19T10:04:18;96807.34;;;2.72;100.00
7990;BME280;4040;42.848;23.034;2022-12-19T10:10:13;96806.91;;;2.79;100.00
7990;BME280;4040;42.848;23.034;2022-12-19T10:16:06;96796.16;;;2.62;100.00
7990;BME280;4040;42.848;23.034;2022-12-19T10:22:04;96789.13;;;2.44;100.00
7990;BME280;4040;42.848;23.034;2022-12-19T10:28:05;96766.41;;;2.60;100.00
7990;BME280;4040;42.848;23.034;2022-12-19T10:34:01;96778.75;;;2.56;100.00
7990;BME280;4040;42.848;23.034;2022-12-19T10:53:28;96746.56;;;1.87;100.00
7990;BME280;4040;42.848;23.034;2022-12-19T10:59:19;96776.66;;;2.09;100.00
7990;BME280;4040;42.848;23.034;2022-12-19T11:05:24;96764.59;;;2.25;100.00
7990;BME280;4040;42.848;23.034;2022-12-19T11:11:15;96763.13;;;2.19;100.00
7990;BME280;4040;42.848;23.034;2022-12-19T11:17:04;96763.13;;;2.41;100.00
7990;BME280;4040;42.848;23.034;2022-12-19T11:22:56;96746.06;;;3.25;100.00
7990;BME280;4040;42.848;23.034;2022-12-19T11:28:48;96748.84;;;3.59;100.00
7990;BME280;4040;42.848;23.034;2022-12-19T11:40:45;96734.25;;;3.48;100.00
7990;BME280;4040;42.848;23.034;2022-12-19T11:46:41;96742.09;;;3.53;100.00
7990;BME280;4040;42.848;23.034;2022-12-19T11:52:39;96738.44;;;4.05;100.00
7990;BME280;4040;42.848;23.034;2022-12-19T11:58:29;96739.38;;;4.34;100.00
7990;BME280;4040;42.848;23.034;2022-12-19T12:04:59;96748.16;;;4.18;100.00
7990;BME280;4040;42.848;23.034;2022-12-19T12:10:57;96734.84;;;4.35;100.00
7990;BME280;4040;42.848;23.034;2022-12-19T12:23:20;96730.88;;;4.58;100.00
7990;BME280;4040;42.848;23.034;2022-12-19T12:29:16;96724.63;;;4.37;100.00
7990;BME280;4040;42.848;23.034;2022-12-19T12:35:17;96734.66;;;4.40;100.00
7990;BME280;4040;42.848;23.034;2022-12-19T12:41:22;96716.78;;;4.32;100.00
7990;BME280;4040;42.848;23.034;2022-12-19T12:47:33;96709.72;;;4.44;100.00
7990;BME280;4040;42.848;23.034;2022-12-19T12:53:24;96722.56;;;4.51;100.00
7990;BME280;4040;42.848;23.034;2022-12-19T12:59:24;96732.16;;;4.35;100.00
7990;BME280;4040;42.848;23.034;2022-12-19T13:05:28;96727.13;;;4.08;100.00
7990;BME280;4040;42.848;23.034;2022-12-19T13:11:35;96723.69;;;3.99;100.00
7990;BME280;4040;42.848;23.034;2022-12-19T13:18:14;96714.41;;;3.71;100.00
7990;BME280;4040;42.848;23.034;2022-12-19T13:24:20;96733.66;;;3.68;100.00
7990;BME280;4040;42.848;23.034;2022-12-19T13:30:17;96732.72;;;3.64;100.00
7990;BME280;4040;42.848;23.034;2022-12-19T13:36:43;96739.63;;;3.65;100.00
7990;BME280;4040;42.848;23.034;2022-12-19T13:42:33;96700.22;;;3.36;100.00
7990;BME280;4040;42.848;23.034;2022-12-19T13:52:03;96731.38;;;3.36;100.00
7990;BME280;4040;42.848;23.034;2022-12-19T13:57:53;96740.75;;;3.25;100.00
7990;BME280;4040;42.848;23.034;2022-12-19T14:03:44;96740.13;;;3.28;100.00
7990;BME280;4040;42.848;23.034;2022-12-19T14:09:37;96737.16;;;3.21;100.00
7990;BME280;4040;42.848;23.034;2022-12-19T14:15:30;96745.22;;;3.07;100.00
7990;BME280;4040;42.848;23.034;2022-12-19T14:21:21;96739.66;;;2.87;100.00
7990;BME280;4040;42.848;23.034;2022-12-19T14:27:14;96733.38;;;2.83;100.00
7990;BME280;4040;42.848;23.034;2022-12-19T14:33:07;96730.66;;;2.74;100.00
7990;BME280;4040;42.848;23.034;2022-12-19T14:38:58;96729.88;;;2.74;100.00
7990;BME280;4040;42.848;23.034;2022-12-19T14:44:51;96744.50;;;2.63;100.00
7990;BME280;4040;42.848;23.034;2022-12-19T14:55:13;96720.16;;;2.47;100.00
7990;BME280;4040;42.848;23.034;2022-12-19T15:01:05;96724.97;;;2.37;100.00
7990;BME280;4040;42.848;23.034;2022-12-19T15:06:56;96722.78;;;2.39;100.00
7990;BME280;4040;42.848;23.034;2022-12-19T15:12:49;96742.72;;;2.28;100.00
7990;BME280;4040;42.848;23.034;2022-12-19T15:18:58;96738.59;;;2.22;100.00
7990;BME280;4040;42.848;23.034;2022-12-19T15:24:47;96741.38;;;2.17;100.00
7990;BME280;4040;42.848;23.034;2022-12-19T15:30:37;96739.22;;;2.19;100.00
7990;BME280;4040;42.848;23.034;2022-12-19T15:36:28;96736.41;;;2.24;100.00
7990;BME280;4040;42.848;23.034;2022-12-19T15:42:19;96756.13;;;2.23;100.00
7990;BME280;4040;42.848;23.034;2022-12-19T15:48:11;96749.13;;;2.27;100.00
7990;BME280;4040;42.848;23.034;2022-12-19T15:54:02;96757.34;;;2.17;100.00
7990;BME280;4040;42.848;23.034;2022-12-19T15:59:51;96752.63;;;2.14;100.00
7990;BME280;4040;42.848;23.034;2022-12-19T16:05:50;96759.19;;;2.17;100.00
7990;BME280;4040;42.848;23.034;2022-12-19T16:12:00;96755.38;;;2.09;100.00
7990;BME280;4040;42.848;23.034;2022-12-19T16:17:48;96767.72;;;2.05;100.00
7990;BME280;4040;42.848;23.034;2022-12-19T16:23:37;96762.28;;;1.97;100.00
7990;BME280;4040;42.848;23.034;2022-12-19T16:29:28;96756.44;;;1.86;100.00
7990;BME280;4040;42.848;23.034;2022-12-19T16:35:21;96768.03;;;1.90;100.00
7990;BME280;4040;42.848;23.034;2022-12-19T16:41:14;96754.25;;;1.88;100.00
7990;BME280;4040;42.848;23.034;2022-12-19T16:47:10;96767.44;;;1.93;100.00
7990;BME280;4040;42.848;23.034;2022-12-19T16:57:02;96775.13;;;1.81;100.00
7990;BME280;4040;42.848;23.034;2022-12-19T17:02:57;96765.69;;;1.75;100.00
7990;BME280;4040;42.848;23.034;2022-12-19T17:08:47;96777.09;;;1.76;100.00
7990;BME280;4040;42.848;23.034;2022-12-19T17:14:35;96774.75;;;1.74;100.00
7990;BME280;4040;42.848;23.034;2022-12-19T17:20:29;96779.06;;;1.70;100.00
7990;BME280;4040;42.848;23.034;2022-12-19T17:26:18;96777.50;;;1.69;100.00
7990;BME280;4040;42.848;23.034;2022-12-19T17:32:12;96775.94;;;1.68;100.00
7990;BME280;4040;42.848;23.034;2022-12-19T17:38:04;96775.53;;;1.61;100.00
7990;BME280;4040;42.848;23.034;2022-12-19T17:43:52;96767.50;;;1.66;100.00
7990;BME280;4040;42.848;23.034;2022-12-19T17:49:41;96747.63;;;1.50;100.00
7990;BME280;4040;42.848;23.034;2022-12-19T17:59:54;96786.75;;;1.58;100.00
7990;BME280;4040;42.848;23.034;2022-12-19T18:05:43;96791.47;;;1.61;100.00
7990;BME280;4040;42.848;23.034;2022-12-19T18:11:31;96783.03;;;1.59;100.00
7990;BME280;4040;42.848;23.034;2022-12-19T18:17:23;96785.00;;;1.67;100.00
7990;BME280;4040;42.848;23.034;2022-12-19T18:23:16;96786.16;;;1.61;100.00
7990;BME280;4040;42.848;23.034;2022-12-19T18:29:05;96786.16;;;1.61;100.00
7990;BME280;4040;42.848;23.034;2022-12-19T18:34:55;96789.91;;;1.60;100.00
7990;BME280;4040;42.848;23.034;2022-12-19T18:40:45;96792.06;;;1.58;100.00
7990;BME280;4040;42.848;23.034;2022-12-19T18:46:34;96793.06;;;1.62;100.00
7990;BME280;4040;42.848;23.034;2022-12-19T18:52:26;96797.38;;;1.58;100.00
7990;BME280;4040;42.848;23.034;2022-12-19T19:02:36;96802.41;;;1.60;100.00
7990;BME280;4040;42.848;23.034;2022-12-19T19:08:31;96811.56;;;1.67;100.00
7990;BME280;4040;42.848;23.034;2022-12-19T19:14:20;96814.31;;;1.62;100.00
7990;BME280;4040;42.848;23.034;2022-12-19T19:20:10;96812.16;;;1.64;100.00
7990;BME280;4040;42.848;23.034;2022-12-19T19:26:00;96804.25;;;1.59;100.00
7990;BME280;4040;42.848;23.034;2022-12-19T19:31:49;96790.69;;;1.47;100.00
7990;BME280;4040;42.848;23.034;2022-12-19T19:37:39;96812.56;;;1.58;100.00
7990;BME280;4040;42.848;23.034;2022-12-19T19:43:30;96810.19;;;1.56;100.00
7990;BME280;4040;42.848;23.034;2022-12-19T19:49:21;96813.03;;;1.60;100.00
7990;BME280;4040;42.848;23.034;2022-12-19T19:55:10;96810.59;;;1.63;100.00
7990;BME280;4040;42.848;23.034;2022-12-19T20:05:23;96824.25;;;1.57;100.00
7990;BME280;4040;42.848;23.034;2022-12-19T20:11:12;96808.59;;;1.55;100.00
7990;BME280;4040;42.848;23.034;2022-12-19T20:17:01;96807.72;;;1.46;100.00
7990;BME280;4040;42.848;23.034;2022-12-19T20:22:51;96817.38;;;1.42;100.00
7990;BME280;4040;42.848;23.034;2022-12-19T20:28:39;96809.97;;;1.39;100.00
7990;BME280;4040;42.848;23.034;2022-12-19T20:34:28;96807.84;;;1.41;100.00
7990;BME280;4040;42.848;23.034;2022-12-19T20:40:18;96805.84;;;1.33;100.00
7990;BME280;4040;42.848;23.034;2022-12-19T20:46:09;96801.72;;;1.41;100.00
7990;BME280;4040;42.848;23.034;2022-12-19T20:51:58;96801.31;;;1.34;100.00
7990;BME280;4040;42.848;23.034;2022-12-19T20:57:48;96791.56;;;1.29;100.00
7990;BME280;4040;42.848;23.034;2022-12-19T21:07:58;96800.31;;;1.16;100.00
7990;BME280;4040;42.848;23.034;2022-12-19T21:13:48;96792.06;;;1.18;100.00
7990;BME280;4040;42.848;23.034;2022-12-19T21:19:37;96811.13;;;1.06;100.00
7990;BME280;4040;42.848;23.034;2022-12-19T21:25:26;96803.09;;;1.11;100.00
7990;BME280;4040;42.848;23.034;2022-12-19T21:31:18;96787.03;;;0.89;100.00
7990;BME280;4040;42.848;23.034;2022-12-19T21:37:08;96791.44;;;0.94;100.00
7990;BME280;4040;42.848;23.034;2022-12-19T21:42:57;96800.78;;;0.91;100.00
7990;BME280;4040;42.848;23.034;2022-12-19T21:48:48;96781.91;;;0.79;100.00
7990;BME280;4040;42.848;23.034;2022-12-19T21:54:37;96788.44;;;0.68;100.00
7990;BME280;4040;42.848;23.034;2022-12-19T22:00:26;96782.72;;;0.61;100.00
7990;BME280;4040;42.848;23.034;2022-12-19T22:10:38;96784.41;;;0.57;100.00
7990;BME280;4040;42.848;23.034;2022-12-19T22:16:27;96779.16;;;0.52;100.00
7990;BME280;4040;42.848;23.034;2022-12-19T22:22:16;96781.31;;;0.50;100.00
7990;BME280;4040;42.848;23.034;2022-12-19T22:28:06;96775.31;;;0.45;100.00
7990;BME280;4040;42.848;23.034;2022-12-19T22:33:57;96775.97;;;0.37;100.00
7990;BME280;4040;42.848;23.034;2022-12-19T22:39:45;96773.50;;;0.08;100.00
7990;BME280;4040;42.848;23.034;2022-12-19T22:45:35;96779.94;;;0.02;100.00
7990;BME280;4040;42.848;23.034;2022-12-19T22:51:25;96778.94;;;-0.02;100.00
7990;BME280;4040;42.848;23.034;2022-12-19T22:57:14;96771.19;;;-0.16;100.00
7990;BME280;4040;42.848;23.034;2022-12-19T23:08:30;96766.88;;;-0.49;100.00
7990;BME280;4040;42.848;23.034;2022-12-19T23:14:20;96716.41;;;-0.76;100.00
7990;BME280;4040;42.848;23.034;2022-12-19T23:20:09;96770.94;;;-0.57;100.00
7990;BME280;4040;42.848;23.034;2022-12-19T23:26:00;96766.50;;;-0.61;100.00
7990;BME280;4040;42.848;23.034;2022-12-19T23:31:48;96755.41;;;-0.63;100.00
7990;BME280;4040;42.848;23.034;2022-12-19T23:37:37;96758.09;;;-0.68;100.00
7990;BME280;4040;42.848;23.034;2022-12-19T23:43:27;96762.66;;;-0.74;100.00
7990;BME280;4040;42.848;23.034;2022-12-19T23:49:16;96757.44;;;-0.79;100.00
7990;BME280;4040;42.848;23.034;2022-12-19T23:55:06;96762.69;;;-0.97;100.00
